Moore, MT

11:33 PM MDT on September 14, 2014 (GMT -0600)
MesoWest CRYSTAL LAKE MT US SNOTEL | Change Station
CLOSE
Current Station
Personal Weather Station
Location: Buffalo, MT
Elevation: 6049 ft
Nearby Weather Stations

Elev 6049 ft 46.79 °N, 109.51 °W | Updated 60 days ago

Clear
Clear
43 °F
Feels Like 43 °F
N
6
Wind Variable Wind from SSE
Gusts 6 mph

Today
High -- | Low -- °F
--% Chance of Precip.
Yesterday
High -- | Low -- °F
Precip. -- in
6:54 AM 7:31 PM
Waning Gibbous, 59% visible
Pressure 30.22 in
Visibility 10.0 miles
Clouds Clear
Dew Point 36 °F
Humidity 71%
Rainfall 0.02 in
Snow Depth 1 in
UV 0 out of 12
Pollen 6.30 out of 12
Air Quality Not available.
Flu Activity Not available.
METAR KLWT 150454Z AUTO 14005KT 10SM CLR 04/01 A3021 RMK AO2 SLP231 T00440011

More Conditions Fewer Conditions

Pressure 30.22 in
Visibility 10.0 miles
Clouds Clear
Dew Point 36 °F
Humidity 71%
Rainfall 0.02 in
Snow Depth 1 in
UV 0 out of 12
Pollen 6.30 out of 12
Air Quality Not available.
Flu Activity Not available.
METAR KLWT 150454Z AUTO 14005KT 10SM CLR 04/01 A3021 RMK AO2 SLP231 T00440011

More Conditions Fewer Conditions

10-Day Weather Forecast

Almanac

Astronomy

Sep. 14, 2014 Rise Set
Actual Time 6:54 AM MDT 7:31 PM MDT
Civil Twilight 6:24 AM MDT 8:02 PM MDT
Nautical Twilight 5:47 AM MDT 8:38 PM MDT
Astronomical Twilight 5:09 AM MDT 9:15 PM MDT
Moon 11:05 PM MDT (9/14) 1:25 PM MDT (9/14)
Length of Visible Light 13h 38m
Length of Day
12h 37m
Tomorrow will be 3m 17s shorter.
Waning Gibbous, 59% of the Moon is Illuminated
Sep 15
Waning Gibbous
Sep 15
Last Quarter
Sep 24
New
Oct 1
First Quarter
Oct 8
Full

Yesterday's Extremes

State Highs State Lows

Community

WunderPhotos

Upload Photos

1,753,415 photos uploaded!

WunderBlogs® & News

By Dr. Jeff Masters
Director of Meteorology, Weather Underground
By Kari Strenfel
Meteorologist, Weather Underground
By Christopher C. Burt
Weather Historian, Weather Underground
September 15, 2014
September 15, 2014
September 15, 2014

Nearby

Snow Depth

Station Depth Elevation
Crystal Lake 1 in 6050 ft
Daisy Peak 0 in 7600 ft
Spur Park 1 in 8100 ft
Deadman Creek 0 in 6450 ft
Onion Park 0 in 7410 ft

Earthquake Activity

City Distance Mag. Time & Date
No recent earthquake activity has been reported nearby.
Minimum magnitude displayed is 2.5.

Coastal Water Temperatures

Place Temperature
No Stations Reporting

Nearby Weather Stations